Amistead, Mississippi
Current Conditions -  °F | °C
As of 2:35 PM on Tuesday 25 Nov 2014 (Local Time) from KCKM Reporting Station
Clear Clear  
Wind Chill: 43°   Ceiling: Unl
Heat Index: 46°   Visibility: 10mi
Dew Point: 27°   Wind: 7mph
Humidity: 46%   Direction: 290°WNW
Pressure: 30.2"   Gusts: NA
Location:  34.3648°N, 90.6363°W
Report Text: KCKM 252035Z AUTO 29006KT 10SM CLR 08/M03 A3020 RMK AO1
Loading
Personal Weather Stations






























Interactive Weather Map New forecast layout! Learn more

10-Day Weather Forecast

Advertisements
Track Severe Weather on mobile